Time;durP1;ratioP1;P1;durP2;ratioP2;P2;SDS_P1;SDS_P2;PMS_P1;PMS_P2;Temp;Humidity;BMP_temperature;BMP_pressure;BME280_temperature;BME280_humidity;BME280_pressure;Samples;Min_cycle;Max_cycle;Signal;HPM_P1;HPM_P2
2021/12/19 00:02:39;;;;;;;6.65;5.75;;;;;;;11.42;68.72;101476.97;4998188;28;102087;-48
2021/12/19 00:10:25;;;;;;;8.00;6.00;;;;;;;11.41;68.68;101473.41;5003108;28;101955;-48
2021/12/19 00:12:56;;;;;;;6.32;5.63;;;;;;;11.42;68.64;101466.88;5002125;28;102113;-49
2021/12/19 00:15:24;;;;;;;6.28;5.55;;;;;;;11.43;68.77;101478.59;5001192;28;102526;-48
2021/12/19 00:17:50;;;;;;;7.35;5.90;;;;;;;11.42;68.36;101476.97;4999938;28;104110;-47
2021/12/19 00:20:17;;;;;;;6.30;5.47;;;;;;;11.42;68.42;101476.97;4999912;28;102164;-49
2021/12/19 00:22:43;;;;;;;7.65;5.95;;;;;;;11.42;68.46;101474.25;4998612;28;105286;-48
2021/12/19 00:25:10;;;;;;;7.55;5.93;;;;;;;11.42;68.74;101471.50;4997883;28;102134;-48
2021/12/19 00:27:36;;;;;;;6.43;5.80;;;;;;;11.42;68.62;101461.44;5007760;28;103724;-49
2021/12/19 00:30:03;;;;;;;6.90;5.57;;;;;;;11.43;68.54;101470.41;4998727;28;103186;-48
2021/12/19 00:32:31;;;;;;;6.20;5.20;;;;;;;11.42;68.92;101460.59;4995580;28;102164;-47
2021/12/19 00:34:57;;;;;;;7.15;5.82;;;;;;;11.43;68.33;101456.78;4993524;28;103601;-48
2021/12/19 00:37:24;;;;;;;6.28;5.00;;;;;;;11.42;68.61;101460.59;4996968;28;103734;-49
2021/12/19 00:39:50;;;;;;;6.07;5.47;;;;;;;11.42;68.91;101444.25;4994220;28;102252;-49
2021/12/19 00:42:26;;;;;;;6.93;5.85;;;;;;;11.43;68.65;101445.91;5007733;28;102369;-48
2021/12/19 00:44:53;;;;;;;5.90;5.30;;;;;;;11.42;68.54;101438.81;4998256;27;102331;-48
2021/12/19 00:47:20;;;;;;;6.68;5.57;;;;;;;11.42;68.89;101438.81;5036998;27;103901;-48
2021/12/19 00:49:48;;;;;;;6.07;5.18;;;;;;;11.43;68.85;101440.44;5046411;27;102569;-48
2021/12/19 00:52:15;;;;;;;7.30;5.25;;;;;;;11.42;68.64;101430.63;5037689;27;102583;-48
2021/12/19 00:54:41;;;;;;;6.15;5.25;;;;;;;11.42;68.92;101428.72;5035082;27;102996;-49
2021/12/19 00:57:08;;;;;;;8.10;5.28;;;;;;;11.42;68.68;101434.19;5036085;27;104299;-48
2021/12/19 00:59:35;;;;;;;5.82;5.07;;;;;;;11.41;68.96;101431.72;5039720;27;102365;-48
2021/12/19 01:02:01;;;;;;;5.65;5.05;;;;;;;11.42;68.72;101427.91;5040588;27;103469;-49
2021/12/19 01:04:28;;;;;;;6.18;4.78;;;;;;;11.43;69.00;101435.00;5043328;27;102586;-48
2021/12/19 01:07:00;;;;;;;5.85;4.88;;;;;;;11.42;68.92;101425.19;5037027;27;104331;-49
2021/12/19 01:09:27;;;;;;;5.78;4.95;;;;;;;11.42;68.64;101423.28;5045569;27;102397;-48
2021/12/19 01:11:55;;;;;;;5.60;5.00;;;;;;;11.41;68.97;101420.81;5042664;27;102142;-48
2021/12/19 01:14:21;;;;;;;5.32;4.63;;;;;;;11.42;68.52;101417.00;5041475;27;102193;-48
2021/12/19 01:16:47;;;;;;;5.63;4.65;;;;;;;11.42;68.82;101411.56;5042999;27;104021;-48
2021/12/19 01:19:14;;;;;;;7.38;5.18;;;;;;;11.43;68.93;101407.75;5044287;27;102363;-47
2021/12/19 01:21:41;;;;;;;5.47;4.60;;;;;;;11.42;68.94;101401.47;5042773;27;102428;-48
2021/12/19 01:24:09;;;;;;;5.50;4.82;;;;;;;11.42;68.98;101400.66;5047027;27;102241;-48
2021/12/19 01:26:36;;;;;;;5.55;4.88;;;;;;;11.43;69.12;101394.09;5038378;27;104184;-48
2021/12/19 01:29:03;;;;;;;5.90;4.60;;;;;;;11.43;68.78;101391.38;5035820;27;102738;-48
2021/12/19 01:31:29;;;;;;;4.97;4.30;;;;;;;11.43;68.73;101391.38;5038681;27;102151;-48
2021/12/19 01:33:56;;;;;;;4.75;4.25;;;;;;;11.43;68.56;101380.47;5036110;27;102200;-49
2021/12/19 01:36:22;;;;;;;5.10;4.60;;;;;;;11.43;68.96;101380.47;5036537;27;104108;-48
2021/12/19 01:38:49;;;;;;;5.80;4.93;;;;;;;11.43;68.71;101377.75;5043497;27;102275;-48
2021/12/19 01:41:16;;;;;;;6.20;4.93;;;;;;;11.42;68.52;101368.75;5044347;27;102219;-48
2021/12/19 01:43:43;;;;;;;5.22;4.45;;;;;;;11.43;68.85;101367.69;5043029;27;102340;-48
2021/12/19 01:46:09;;;;;;;5.32;4.35;;;;;;;11.42;69.09;101359.78;5039504;27;104148;-48
2021/12/19 01:48:36;;;;;;;5.18;4.40;;;;;;;11.42;68.55;101349.69;5047897;27;102496;-49
2021/12/19 01:51:02;;;;;;;5.07;4.13;;;;;;;11.42;68.88;101344.25;5037721;27;102089;-48
2021/12/19 01:53:29;;;;;;;5.28;4.50;;;;;;;11.42;69.15;101341.50;5042232;27;102169;-47
2021/12/19 01:55:56;;;;;;;4.88;4.35;;;;;;;11.42;69.16;101335.25;5038061;27;104093;-48
2021/12/19 01:58:24;;;;;;;5.88;4.50;;;;;;;11.43;69.01;101332.28;5047632;27;102092;-48
2021/12/19 02:00:54;;;;;;;4.77;4.10;;;;;;;11.42;68.74;101322.44;5036018;27;102640;-48
2021/12/19 02:03:20;;;;;;;;;;;;;;;11.43;68.95;101320.53;5041535;27;102354;-48
2021/12/19 02:05:47;;;;;;;5.40;4.20;;;;;;;11.43;68.95;101320.53;5034386;27;104073;-48
2021/12/19 02:08:14;;;;;;;4.97;4.20;;;;;;;11.43;68.62;101315.06;5054414;27;102442;-48
2021/12/19 02:10:41;;;;;;;4.50;3.95;;;;;;;11.42;68.66;101308.81;5037813;27;102555;-48
2021/12/19 02:13:10;;;;;;;4.15;3.72;;;;;;;11.43;69.43;101299.56;5044251;27;102675;-48
2021/12/19 02:15:39;;;;;;;;;;;;;;;11.42;68.90;101297.91;5050292;27;103817;-49
2021/12/19 02:18:08;;;;;;;6.55;4.07;;;;;;;11.41;68.58;101296.28;5046735;27;102226;-49
2021/12/19 02:20:44;;;;;;;5.20;3.97;;;;;;;11.41;68.80;101299.00;5052104;27;102493;-49
2021/12/19 02:23:11;;;;;;;5.03;3.97;;;;;;;11.42;68.68;101297.09;5049390;27;102148;-48
2021/12/19 02:25:39;;;;;;;5.07;4.53;;;;;;;11.43;68.83;101298.72;5042530;27;103970;-48
2021/12/19 02:28:06;;;;;;;4.78;3.85;;;;;;;11.42;68.94;101297.09;5051186;27;102277;-48
2021/12/19 02:30:33;;;;;;;4.47;4.00;;;;;;;11.42;68.72;101284.28;5040382;27;102713;-51
2021/12/19 02:33:00;;;;;;;3.85;3.55;;;;;;;11.43;68.90;101283.22;5045837;27;102346;-49
2021/12/19 02:35:31;;;;;;;4.80;4.00;;;;;;;11.42;68.63;101278.00;5045982;27;104118;-49
2021/12/19 02:48:34;;;;;;;4.25;3.60;;;;;;;11.42;68.46;101265.19;5052170;27;102028;-48
2021/12/19 02:51:02;;;;;;;4.15;3.75;;;;;;;11.42;68.92;101269.84;5054921;27;102299;-48
2021/12/19 02:53:33;;;;;;;4.28;3.83;;;;;;;11.42;68.66;101250.75;5049289;27;102471;-48
2021/12/19 02:56:01;;;;;;;3.97;3.40;;;;;;;11.43;69.06;101260.56;5047237;27;103943;-48
2021/12/19 02:58:28;;;;;;;4.13;3.72;;;;;;;11.42;68.70;101248.84;5042505;27;101912;-48
2021/12/19 03:00:55;;;;;;;3.80;3.40;;;;;;;11.42;68.97;101243.41;5045887;27;102102;-49
2021/12/19 03:03:22;;;;;;;4.55;3.80;;;;;;;11.42;68.89;101239.84;5048670;27;102386;-48
2021/12/19 03:05:49;;;;;;;4.05;3.65;;;;;;;11.42;68.81;101239.84;5036502;27;103876;-48
2021/12/19 03:08:15;;;;;;;4.72;3.47;;;;;;;11.42;69.15;101245.31;5038302;27;102411;-48
2021/12/19 03:18:50;;;;;;;3.85;3.45;;;;;;;11.43;68.93;101241.47;5037554;27;102354;-48
2021/12/19 03:21:18;;;;;;;4.00;3.60;;;;;;;11.42;69.09;101245.31;5038088;27;102348;-49
2021/12/19 03:23:44;;;;;;;4.72;3.40;;;;;;;11.42;68.96;101232.50;5036860;27;102198;-47
2021/12/19 03:26:13;;;;;;;4.13;3.28;;;;;;;11.42;69.17;101231.69;5048310;27;104024;-48
2021/12/19 03:28:39;;;;;;;3.60;3.30;;;;;;;11.43;69.21;101233.31;5052944;27;102192;-47
2021/12/19 03:31:05;;;;;;;3.53;3.22;;;;;;;11.42;69.13;101231.69;5034823;27;102302;-49
2021/12/19 03:33:35;;;;;;;4.00;3.60;;;;;;;11.42;68.87;101235.22;5052185;27;102530;-47
2021/12/19 03:36:03;;;;;;;4.20;3.40;;;;;;;11.42;68.81;101226.22;5050602;27;103992;-48
2021/12/19 03:38:30;;;;;;;3.35;3.05;;;;;;;11.42;68.82;101220.78;5054228;27;101966;-48
2021/12/19 03:41:17;;;;;;;3.30;2.88;;;;;;;11.41;68.66;101225.41;5048108;27;102219;-48
2021/12/19 03:43:45;;;;;;;4.22;3.28;;;;;;;11.42;68.94;101210.69;5048425;27;102373;-48
2021/12/19 03:46:11;;;;;;;3.63;3.30;;;;;;;11.42;68.99;101212.59;5036399;27;103858;-48
2021/12/19 03:48:38;;;;;;;3.65;3.25;;;;;;;11.42;68.89;101215.31;5037009;27;102144;-48
2021/12/19 03:51:05;;;;;;;3.92;3.45;;;;;;;11.42;69.07;101204.44;5037139;27;102732;-47
2021/12/19 03:53:31;;;;;;;3.28;2.97;;;;;;;11.42;69.03;101199.78;5054361;27;102191;-48
2021/12/19 03:55:58;;;;;;;3.83;3.20;;;;;;;11.42;69.00;101198.97;5043001;27;103709;-48
2021/12/19 03:58:24;;;;;;;4.07;3.10;;;;;;;11.42;68.86;101201.69;5036924;27;102602;-48
2021/12/19 04:00:53;;;;;;;3.50;3.08;;;;;;;11.43;69.13;101200.59;5033034;27;102537;-48
2021/12/19 04:03:21;;;;;;;3.80;3.40;;;;;;;11.42;69.15;101193.53;5040270;27;102338;-48
2021/12/19 04:05:49;;;;;;;3.92;3.53;;;;;;;11.42;68.65;101194.34;5041895;27;103897;-48
2021/12/19 04:08:20;;;;;;;4.03;3.35;;;;;;;11.42;68.71;101188.88;5048949;27;102266;-48
2021/12/19 04:10:47;;;;;;;3.40;3.10;;;;;;;11.43;68.91;101184.25;5038410;27;102201;-49
2021/12/19 04:13:15;;;;;;;4.18;3.10;;;;;;;11.42;69.02;101177.19;5051690;27;102161;-48
2021/12/19 04:15:41;;;;;;;3.35;3.05;;;;;;;11.42;69.28;101166.28;5036861;27;103871;-48
2021/12/19 04:18:09;;;;;;;4.22;3.83;;;;;;;11.43;69.07;101167.91;5051625;27;102730;-47
2021/12/19 04:20:36;;;;;;;4.15;3.28;;;;;;;11.42;68.97;101161.63;5046837;27;102226;-48
2021/12/19 04:23:04;;;;;;;3.85;3.45;;;;;;;11.41;69.31;101156.47;5035895;27;103720;-47
2021/12/19 04:25:31;;;;;;;3.65;3.35;;;;;;;11.42;69.19;101149.91;5034716;27;104069;-47
2021/12/19 04:27:57;;;;;;;3.90;3.50;;;;;;;11.42;69.22;101149.91;5042225;27;102375;-48
2021/12/19 04:30:25;;;;;;;4.47;3.58;;;;;;;11.41;68.80;101143.66;5042608;27;102377;-48
2021/12/19 04:33:12;;;;;;;4.15;3.65;;;;;;;11.42;68.94;101131.66;5038654;27;102641;-48
2021/12/19 04:35:43;;;;;;;3.72;3.28;;;;;;;11.42;68.84;101130.84;5034657;27;103914;-47
2021/12/19 04:57:07;;;;;;;3.47;3.17;;;;;;;11.41;68.79;101105.50;5039209;27;104066;-47
2021/12/19 05:05:02;;;;;;;3.92;3.05;;;;;;;11.41;69.33;101083.69;5035841;27;102372;-47
2021/12/19 05:15:50;;;;;;;4.15;3.20;;;;;;;11.41;69.15;101061.09;5045258;27;104197;-48
2021/12/19 05:18:18;;;;;;;4.72;3.40;;;;;;;11.42;69.03;101051.81;5038852;27;103954;-48
2021/12/19 05:20:54;;;;;;;4.03;3.40;;;;;;;11.42;69.00;101049.09;5043041;27;102172;-47
2021/12/19 05:23:49;;;;;;;3.63;3.33;;;;;;;11.42;68.97;101057.25;5045966;27;102375;-48
2021/12/19 05:26:14;;;;;;;4.22;3.70;;;;;;;11.42;69.21;101047.19;5038916;27;102203;-48
2021/12/19 05:28:42;;;;;;;3.28;2.97;;;;;;;11.42;69.05;101046.38;5046816;27;104373;-48
2021/12/19 05:31:08;;;;;;;3.60;3.30;;;;;;;11.41;69.07;101045.53;5052231;27;102414;-47
2021/12/19 05:33:35;;;;;;;4.95;3.55;;;;;;;11.42;69.02;101057.25;5043012;27;101983;-48
2021/12/19 05:46:54;;;;;;;3.65;3.25;;;;;;;11.42;69.24;101035.47;5042141;27;102186;-47
2021/12/19 05:49:20;;;;;;;3.83;3.42;;;;;;;11.42;68.85;101041.72;5044494;27;104034;-47
2021/12/19 05:51:47;;;;;;;3.70;3.30;;;;;;;11.43;69.28;101051.56;5053965;27;102974;-48
2021/12/19 05:54:15;;;;;;;3.95;3.35;;;;;;;11.41;69.37;101051.00;5036456;27;102210;-47
2021/12/19 05:56:42;;;;;;;3.90;3.57;;;;;;;11.42;68.82;101057.25;5040436;27;102595;-47
2021/12/19 05:59:16;;;;;;;3.42;3.13;;;;;;;11.42;69.03;101049.09;5047609;27;103878;-48
2021/12/19 06:01:43;;;;;;;3.63;2.97;;;;;;;11.42;69.07;101043.63;5040282;27;102625;-47
2021/12/19 06:04:10;;;;;;;4.28;3.60;;;;;;;11.42;68.86;101035.47;5043258;27;102375;-47
2021/12/19 06:06:37;;;;;;;3.45;3.15;;;;;;;11.42;69.10;101040.91;5056565;27;102698;-48
2021/12/19 06:09:05;;;;;;;4.13;3.72;;;;;;;11.42;68.96;101032.75;5037643;27;103941;-49
2021/12/19 06:11:34;;;;;;;3.38;2.97;;;;;;;11.42;68.82;101030.00;5048842;27;102468;-47
2021/12/19 06:14:01;;;;;;;4.45;4.05;;;;;;;11.43;68.90;101026.19;5037669;27;102246;-48
2021/12/19 06:16:27;;;;;;;3.85;3.45;;;;;;;11.42;68.85;101008.22;5040323;27;102626;-48
2021/12/19 06:18:54;;;;;;;4.53;3.45;;;;;;;11.43;69.30;101001.66;5055877;27;104114;-47
2021/12/19 06:21:20;;;;;;;4.68;3.88;;;;;;;11.43;69.23;101004.38;5054947;27;103061;-47
2021/12/19 06:23:46;;;;;;;3.95;3.38;;;;;;;11.42;68.93;100998.13;5045111;27;102246;-48
2021/12/19 06:26:13;;;;;;;4.03;3.45;;;;;;;11.43;69.03;100996.22;5042498;27;103558;-47
2021/12/19 06:28:41;;;;;;;3.55;3.22;;;;;;;11.43;69.26;101001.66;5042281;27;103925;-47
2021/12/19 06:31:08;;;;;;;4.93;3.50;;;;;;;11.43;69.06;100993.50;5047812;27;102290;-46
2021/12/19 06:33:35;;;;;;;3.65;3.20;;;;;;;11.44;69.08;100990.50;5048619;27;102304;-48
2021/12/19 06:36:03;;;;;;;4.03;3.22;;;;;;;11.45;69.25;100991.31;5039500;27;102718;-48
2021/12/19 06:38:30;;;;;;;4.78;3.53;;;;;;;11.46;69.12;100984.78;5042231;27;103893;-47
2021/12/19 06:40:56;;;;;;;4.45;3.47;;;;;;;11.45;69.15;100974.97;5038485;27;102592;-48
2021/12/19 06:43:22;;;;;;;4.22;3.83;;;;;;;11.46;69.06;100976.59;5037016;27;102870;-48
2021/12/19 06:45:50;;;;;;;4.35;3.45;;;;;;;11.46;69.08;100973.88;5039897;27;102607;-48
2021/12/19 06:48:18;;;;;;;4.45;4.05;;;;;;;11.46;69.44;100960.25;5039822;27;103970;-48
2021/12/19 06:50:44;;;;;;;4.90;4.07;;;;;;;11.46;69.41;100969.25;5047805;27;102304;-48
2021/12/19 06:53:11;;;;;;;4.28;3.83;;;;;;;11.47;69.47;100973.63;5034441;27;103092;-47
2021/12/19 06:55:37;;;;;;;3.85;3.53;;;;;;;11.47;69.04;100967.34;5044236;27;102248;-48
2021/12/19 06:58:04;;;;;;;5.00;4.00;;;;;;;11.47;69.12;100965.44;5040425;27;104004;-48
2021/12/19 07:00:31;;;;;;;3.85;3.42;;;;;;;11.46;68.99;100961.06;5043174;27;102002;-48
2021/12/19 07:03:00;;;;;;;3.65;3.35;;;;;;;11.47;69.33;100956.44;5042540;27;101980;-47
2021/12/19 07:05:26;;;;;;;3.50;3.20;;;;;;;11.47;69.23;100954.53;5037912;27;105554;-47
2021/12/19 07:07:53;;;;;;;4.13;3.72;;;;;;;11.48;69.19;100952.63;5053297;27;104010;-47
2021/12/19 07:10:19;;;;;;;4.32;3.72;;;;;;;11.48;69.21;100952.63;5046976;27;102300;-48
2021/12/19 07:12:46;;;;;;;4.10;3.70;;;;;;;11.47;69.10;100951.81;5043794;27;102561;-48
2021/12/19 07:15:17;;;;;;;4.18;3.80;;;;;;;11.49;69.09;100948.81;5045967;27;106142;-48
2021/12/19 07:17:44;;;;;;;3.30;2.88;;;;;;;11.49;69.19;100943.34;5051092;27;103948;-47
2021/12/19 07:20:12;;;;;;;4.32;3.88;;;;;;;11.48;69.30;100930.81;5044208;27;101999;-48
2021/12/19 07:22:41;;;;;;;4.68;3.55;;;;;;;11.49;69.29;100924.28;5042883;27;102207;-47
2021/12/19 07:25:09;;;;;;;3.85;3.55;;;;;;;11.49;68.92;100921.56;5038116;27;102184;-48
2021/12/19 07:27:35;;;;;;;4.00;3.65;;;;;;;11.49;69.50;100927.81;5041164;27;103935;-48
2021/12/19 07:30:03;;;;;;;3.83;3.30;;;;;;;11.50;69.35;100918.56;5044615;27;102244;-48
2021/12/19 07:32:31;;;;;;;4.13;3.72;;;;;;;11.50;69.13;100917.72;5038104;27;104115;-47
2021/12/19 07:34:57;;;;;;;4.18;3.78;;;;;;;11.49;69.05;100911.47;5043648;27;105368;-48
2021/12/19 07:37:25;;;;;;;4.53;4.13;;;;;;;11.49;69.09;100911.47;5040420;27;103897;-48
2021/12/19 07:40:03;;;;;;;4.13;3.72;;;;;;;11.49;69.71;100911.47;5037435;27;102317;-49
2021/12/19 07:42:31;;;;;;;4.18;3.75;;;;;;;11.49;69.27;100907.94;5045119;27;102289;-48
2021/12/19 07:44:57;;;;;;;4.75;3.75;;;;;;;11.50;69.24;100901.38;5046091;27;102454;-48
2021/12/19 07:47:24;;;;;;;4.32;3.88;;;;;;;11.48;68.99;100889.94;5048144;27;103773;-47
2021/12/19 07:49:50;;;;;;;4.57;3.92;;;;;;;11.49;69.51;100886.13;5047604;27;102009;-47
2021/12/19 07:52:17;;;;;;;4.57;3.90;;;;;;;11.50;69.22;100890.47;5040709;27;102591;-48
2021/12/19 07:54:46;;;;;;;4.10;3.60;;;;;;;11.49;69.14;100877.94;5041174;27;102521;-46
2021/12/19 07:57:12;;;;;;;4.05;3.30;;;;;;;11.49;69.20;100877.94;5039322;27;103934;-48
2021/12/19 07:59:38;;;;;;;5.03;3.85;;;;;;;11.49;68.95;100875.22;5045526;27;102215;-48
2021/12/19 08:02:05;;;;;;;4.55;3.95;;;;;;;11.49;69.39;100862.41;5049665;27;102136;-48
2021/12/19 08:04:33;;;;;;;4.63;3.63;;;;;;;11.49;69.10;100853.41;5054775;27;102651;-47
2021/12/19 08:06:59;;;;;;;5.30;4.50;;;;;;;11.49;69.22;100829.69;5052146;27;103890;-47
2021/12/19 08:09:38;;;;;;;4.03;3.53;;;;;;;11.49;69.08;100818.81;5035696;27;102549;-48
2021/12/19 08:12:07;;;;;;;4.53;3.63;;;;;;;11.49;69.42;100812.53;5036459;27;102438;-46
2021/12/19 08:14:34;;;;;;;4.93;4.00;;;;;;;11.49;69.42;100813.34;5039019;27;103011;-48
2021/12/19 08:17:01;;;;;;;4.45;3.58;;;;;;;11.49;69.21;100807.91;5041236;27;104055;-48
2021/12/19 08:19:27;;;;;;;4.00;3.70;;;;;;;11.50;68.94;100797.81;5042808;27;104021;-48
2021/12/19 08:21:54;;;;;;;4.63;3.83;;;;;;;11.51;69.39;100794.00;5037804;27;102194;-47
2021/12/19 08:24:20;;;;;;;4.25;3.80;;;;;;;11.50;69.18;100792.34;5042678;27;102425;-49
2021/12/19 08:26:47;;;;;;;4.43;3.92;;;;;;;11.51;69.28;100794.00;5043096;27;103525;-47
2021/12/19 08:29:15;;;;;;;4.07;3.30;;;;;;;11.51;69.21;100778.47;5042152;27;105218;-48
2021/12/19 08:31:41;;;;;;;4.68;3.90;;;;;;;11.52;68.98;100779.28;5037420;27;102276;-48
2021/12/19 08:34:08;;;;;;;4.90;4.00;;;;;;;11.51;69.26;100778.47;5036676;27;102669;-48
2021/12/19 08:36:35;;;;;;;4.43;4.03;;;;;;;11.51;69.05;100773.03;5041864;27;103912;-47
2021/12/19 08:39:02;;;;;;;4.57;4.18;;;;;;;11.51;69.37;100764.03;5050753;27;102269;-48
2021/12/19 08:41:29;;;;;;;4.60;3.90;;;;;;;11.51;69.48;100761.31;5035379;27;102318;-48
2021/12/19 08:43:55;;;;;;;4.38;3.97;;;;;;;11.52;69.43;100752.03;5053497;27;102220;-47
2021/12/19 08:46:23;;;;;;;4.30;3.90;;;;;;;11.51;68.94;100750.41;5040979;27;104049;-48
2021/12/19 08:48:50;;;;;;;4.53;3.60;;;;;;;11.51;69.46;100747.69;5047369;27;102409;-51
2021/12/19 08:51:16;;;;;;;4.07;3.67;;;;;;;11.52;69.38;100741.13;5034804;27;102153;-47
2021/12/19 08:53:43;;;;;;;5.57;4.63;;;;;;;11.51;69.29;100731.34;5042138;27;102122;-48
2021/12/19 08:56:10;;;;;;;4.32;3.88;;;;;;;11.51;69.37;100740.31;5047976;27;104222;-48
2021/12/19 08:58:37;;;;;;;5.13;4.10;;;;;;;11.51;69.27;100729.41;5038569;27;102445;-48
2021/12/19 09:01:12;;;;;;;6.18;4.38;;;;;;;11.52;69.14;100730.22;5035145;27;102505;-48
2021/12/19 09:03:40;;;;;;;4.70;4.18;;;;;;;11.51;69.16;100723.16;5045998;27;102174;-48
2021/12/19 09:06:06;;;;;;;5.07;4.13;;;;;;;11.52;69.15;100722.06;5036712;27;103924;-48
2021/12/19 09:08:33;;;;;;;4.18;3.78;;;;;;;11.51;69.10;100709.53;5035728;27;102114;-48
2021/12/19 09:11:00;;;;;;;5.05;4.25;;;;;;;11.51;69.05;100702.16;5036362;27;102186;-48
2021/12/19 09:13:26;;;;;;;4.68;4.15;;;;;;;11.52;69.43;100692.06;5036198;27;102247;-48
2021/12/19 09:15:53;;;;;;;4.80;4.00;;;;;;;11.51;69.01;100680.38;5037233;27;103894;-48
2021/12/19 09:18:22;;;;;;;4.60;4.20;;;;;;;11.53;69.32;100693.69;5043494;27;102370;-47
2021/12/19 09:20:51;;;;;;;4.70;4.20;;;;;;;11.53;69.10;100693.69;5040076;27;102226;-48
2021/12/19 09:23:18;;;;;;;4.07;3.55;;;;;;;11.53;69.18;100690.97;5043897;27;102600;-47
2021/12/19 09:25:46;;;;;;;5.10;4.60;;;;;;;11.53;69.31;100683.59;5035637;27;104042;-47
2021/12/19 09:28:14;;;;;;;4.80;3.85;;;;;;;11.53;69.26;100666.44;5034710;27;102159;-47
2021/12/19 09:30:41;;;;;;;4.72;4.20;;;;;;;11.53;69.39;100656.34;5034524;27;102523;-47
2021/12/19 09:33:14;;;;;;;4.95;4.45;;;;;;;11.55;69.07;100642.47;5034428;27;102269;-47
2021/12/19 09:35:40;;;;;;;6.00;4.40;;;;;;;11.54;69.38;100635.38;5034291;27;104096;-47
2021/12/19 09:38:09;;;;;;;5.63;4.20;;;;;;;11.55;68.93;100623.38;5039190;27;102244;-48
2021/12/19 09:40:38;;;;;;;5.03;4.53;;;;;;;11.55;69.25;100618.75;5044457;27;102290;-48
2021/12/19 09:43:09;;;;;;;4.60;4.18;;;;;;;11.55;68.85;100616.03;5043838;27;102297;-48
2021/12/19 09:45:37;;;;;;;5.07;4.35;;;;;;;11.56;68.94;100611.38;5028455;27;107971;-48
2021/12/19 09:48:04;;;;;;;4.85;3.70;;;;;;;11.57;69.33;100593.91;5035874;27;105609;-48
2021/12/19 09:50:31;;;;;;;5.05;4.55;;;;;;;11.57;68.91;100599.38;5036037;27;102405;-48
2021/12/19 09:52:57;;;;;;;5.28;4.10;;;;;;;11.58;69.19;100598.31;5045118;27;102219;-48
2021/12/19 09:55:25;;;;;;;5.28;4.50;;;;;;;11.58;69.31;100581.94;5038316;27;104142;-48
2021/12/19 09:57:53;;;;;;;4.65;4.15;;;;;;;11.57;69.11;100577.56;5042832;27;102367;-49
2021/12/19 10:00:20;;;;;;;5.25;4.35;;;;;;;11.58;69.18;100557.41;5042303;27;102237;-47
2021/12/19 10:02:48;;;;;;;5.35;4.57;;;;;;;11.59;69.10;100550.84;5041766;27;102159;-48
2021/12/19 10:05:18;;;;;;;6.00;4.55;;;;;;;11.59;69.21;100550.84;5056110;27;104211;-49
2021/12/19 10:08:03;;;;;;;5.05;4.50;;;;;;;11.59;69.22;100550.84;5039321;27;102277;-51
2021/12/19 10:10:43;;;;;;;4.35;3.85;;;;;;;11.60;69.05;100557.94;5056210;27;101903;-48
2021/12/19 10:13:10;;;;;;;4.85;4.28;;;;;;;11.60;69.36;100552.47;5046323;27;102555;-48
2021/12/19 10:15:38;;;;;;;4.97;4.05;;;;;;;11.60;69.40;100555.19;5055277;27;103922;-47
2021/12/19 10:18:09;;;;;;;5.30;4.40;;;;;;;11.60;68.88;100551.66;5047269;27;102139;-48
2021/12/19 10:20:53;;;;;;;5.45;4.70;;;;;;;11.61;68.88;100553.28;5038574;27;102188;-48
2021/12/19 10:23:22;;;;;;;5.70;4.60;;;;;;;11.61;68.95;100559.59;5046625;27;102348;-47
2021/12/19 10:25:58;;;;;;;5.13;4.63;;;;;;;11.62;69.10;100546.75;5047121;27;104153;-47
2021/12/19 10:28:25;;;;;;;4.90;4.40;;;;;;;11.60;69.34;100536.13;5046684;27;103913;-48
2021/12/19 10:30:51;;;;;;;5.10;4.60;;;;;;;11.61;68.96;100526.03;5037695;27;101998;-49
2021/12/19 10:33:25;;;;;;;6.82;4.70;;;;;;;11.61;69.24;100526.88;5051141;27;102614;-48
2021/12/19 10:35:54;;;;;;;6.57;4.90;;;;;;;11.62;68.73;100522.22;5047004;27;103741;-47
2021/12/19 10:38:22;;;;;;;5.80;5.18;;;;;;;11.62;69.11;100511.31;5041947;27;102537;-48
2021/12/19 10:40:52;;;;;;;5.40;4.90;;;;;;;11.61;68.71;100510.53;5051581;27;102172;-48
2021/12/19 10:43:21;;;;;;;;;;;;;;;11.62;69.19;100508.59;5048399;27;102154;-48
2021/12/19 10:45:51;;;;;;;5.68;5.07;;;;;;;11.61;68.83;100499.63;5039623;27;103924;-47
2021/12/19 10:48:23;;;;;;;6.43;4.75;;;;;;;11.62;69.07;100492.25;5040309;27;102228;-47
2021/12/19 10:50:54;;;;;;;5.70;5.13;;;;;;;11.61;69.03;100488.72;5044014;27;103485;-48
2021/12/19 10:53:24;;;;;;;5.68;4.57;;;;;;;11.61;69.21;100477.81;5048400;27;102321;-48
2021/12/19 10:55:51;;;;;;;6.63;4.78;;;;;;;11.61;69.05;100475.09;5050212;27;104030;-48
2021/12/19 10:58:24;;;;;;;5.10;4.43;;;;;;;11.61;69.13;100477.81;5036917;27;102188;-48
2021/12/19 11:01:06;;;;;;;5.68;4.53;;;;;;;11.60;69.17;100459.81;5036879;27;103041;-48
2021/12/19 11:03:42;;;;;;;5.85;4.75;;;;;;;11.61;69.28;100449.72;5042056;27;102174;-48
2021/12/19 11:06:37;;;;;;;5.15;4.45;;;;;;;11.61;69.00;100442.38;5035188;27;103894;-48
2021/12/19 11:09:11;;;;;;;4.90;4.40;;;;;;;11.61;68.62;100438.81;5001207;27;102260;-47
2021/12/19 11:11:48;;;;;;;5.78;5.03;;;;;;;11.60;68.82;100438.00;5046637;27;102154;-47
2021/12/19 11:14:21;;;;;;;6.07;4.70;;;;;;;11.61;68.97;100434.19;5040742;27;102518;-47
2021/12/19 11:16:50;;;;;;;6.05;5.32;;;;;;;11.61;69.00;100423.31;5045001;27;103898;-48
2021/12/19 11:19:17;;;;;;;7.00;5.30;;;;;;;11.62;69.21;100424.09;5047617;27;103639;-48
2021/12/19 11:21:44;;;;;;;8.55;6.63;;;;;;;11.63;68.83;100420.28;5043744;27;102906;-48
2021/12/19 11:24:12;;;;;;;6.43;5.78;;;;;;;11.62;68.88;100402.31;5041365;27;105829;-48
2021/12/19 11:26:42;;;;;;;9.60;7.13;;;;;;;11.62;69.15;100397.66;5048970;27;104975;-48
2021/12/19 11:29:09;;;;;;;7.80;6.07;;;;;;;11.61;69.16;100379.69;5037585;27;102188;-48
2021/12/19 11:31:41;;;;;;;9.23;6.63;;;;;;;11.61;69.11;100379.69;5051025;27;101992;-48
2021/12/19 11:34:31;;;;;;;8.57;7.20;;;;;;;11.62;69.09;100375.84;5054896;27;102130;-48
2021/12/19 11:37:02;;;;;;;10.48;8.02;;;;;;;11.63;69.07;100371.22;5041396;27;108032;-48
2021/12/19 11:39:32;;;;;;;10.98;7.72;;;;;;;11.62;69.26;100364.94;5048554;27;102048;-48
2021/12/19 11:42:09;;;;;;;9.48;7.57;;;;;;;11.62;69.21;100364.94;5042410;27;102657;-48
2021/12/19 11:44:45;;;;;;;9.25;7.45;;;;;;;11.62;68.80;100364.94;5038998;27;102198;-47
2021/12/19 11:47:33;;;;;;;8.50;7.20;;;;;;;11.62;69.25;100348.59;5020245;27;104474;-48
2021/12/19 11:50:11;;;;;;;9.67;7.87;;;;;;;11.61;69.25;100341.53;5023321;27;102284;-48
2021/12/19 11:52:37;;;;;;;10.20;8.05;;;;;;;11.62;68.79;100332.25;5026518;27;102147;-48
2021/12/19 11:55:24;;;;;;;9.32;7.55;;;;;;;11.61;68.93;100330.63;5022783;28;102383;-47
2021/12/19 11:58:19;;;;;;;9.98;7.68;;;;;;;11.62;69.03;100315.88;5033083;27;103928;-48
2021/12/19 12:00:50;;;;;;;9.00;7.55;;;;;;;11.62;68.97;100310.44;5023004;28;102160;-48
2021/12/19 12:03:24;;;;;;;9.02;7.25;;;;;;;11.62;69.14;100305.00;5027609;27;102200;-47
2021/12/19 12:05:55;;;;;;;9.05;7.43;;;;;;;11.61;68.85;100300.66;5022155;27;102809;-47
2021/12/19 12:08:24;;;;;;;9.15;7.18;;;;;;;11.62;68.98;100298.72;5029778;27;103829;-48
2021/12/19 12:11:10;;;;;;;8.68;7.20;;;;;;;11.62;68.94;100293.28;5027093;28;102725;-47
2021/12/19 12:13:39;;;;;;;10.23;7.95;;;;;;;11.61;68.88;100308.81;5031133;27;102221;-48
2021/12/19 12:16:40;;;;;;;;;;;;;;;11.61;69.17;100314.28;5029638;27;103031;-48
2021/12/19 12:19:08;;;;;;;9.18;7.50;;;;;;;11.62;69.03;100305.00;5002377;28;103908;-48
2021/12/19 12:24:07;;;;;;;9.65;7.60;;;;;;;11.61;68.89;100308.81;5025576;27;102027;-47
2021/12/19 12:26:40;;;;;;;10.30;7.93;;;;;;;11.62;68.98;100320.53;5020011;28;102215;-47
2021/12/19 12:29:10;;;;;;;8.43;7.35;;;;;;;11.61;68.93;100314.28;5018106;27;103787;-48
2021/12/19 12:31:37;;;;;;;9.35;7.35;;;;;;;11.61;68.55;100314.28;5021525;27;101932;-47
2021/12/19 12:34:09;;;;;;;8.73;7.82;;;;;;;11.61;68.93;100314.28;5017791;27;101983;-47
2021/12/19 12:36:38;;;;;;;9.05;7.68;;;;;;;11.60;68.79;100307.19;5021734;28;102156;-48